Pagrindinis puslapis
METAR-TAF:

METAR-TAF

Oro uostai :

Formosa, Argentina

platuma: 26-12S, ilguma: 058-14W, Aukštis: 59 m

Dabartinis oras

Ataskaita buvo paskelbta 1 valandą ir 8 minutes, ne 15:00 UTC
Vėjas 11 kt iš Šiaurės
Temperatūra 34°C
Drėgmė 41%
Slėgis 1006 hPa
Matomumas: 3000 m
migla, dūmai

METAR: SARF 151500Z 36011KT 3000 HZ FU NSC 34/19 Q1006

Laikas: 13:08 (16:08 UTC)

Prognozė

Ataskaita buvo paskelbta 5 valandos ir 8 minutes, ne 11:00 UTC
Prognozė galioja nuo 15 metu 12 UTC su 16 metu 12 UTC
Vėjas 5 kt iš Rytų
Matomumas: 5000 m
rūkana
Tapsmas
nuo 15 metu 13 UTC su 15 metu 14 UTC
Vėjas 15 kt iš Šiaurės Rytų
Matomumas 10 km arba daugiau
Mažai debesys ne aukštis 3500 ft
Tapsmas
nuo 16 metu 09 UTC su 16 metu 11 UTC
Vėjas 15 kt iš Pietų/Pietvakarių su gūsio iki 30 kt
Matomumas 10 km arba daugiau
Apsiniaukę ne aukštis 2500 ft

TAF: SARF 151100Z 1512/1612 09005KT 5000 BR NSC TX32/1518Z TN17/1612Z BECMG 1513/1514 05015KT 9999 FEW035 BECMG 1609/1611 21015G30KT 9999 OVC025

Orai ataskaitas ir orų prognozės (METAR, TAF).

turimą stotys yra geltonos ir raudonos taškus žemėlapyje.

Perkelti pele per norėdami pamatyti stoties vardą.

Tada spustelėkite, norėdami matyti oro stebėjimo ir prognozės.

Norėdami pakeisti žemėlapį: spustelėkite ant žalios mygtukų su juodo kryžiaus žemyn,; žalią mygtuką su brūkšneliu, jei norite nutolinti; arba žalių rodyklių gretimoms žemėlapius.


METAR-TAF: